sensor_id;sensor_type;location;lat;lon;timestamp;P1;durP1;ratioP1;P2;durP2;ratioP2
54406;SDS011;40313;50.308;30.374;2022-09-09T00:00:12;10.75;;;6.88;;
54406;SDS011;40313;50.308;30.374;2022-09-09T00:02:41;9.75;;;6.47;;
54406;SDS011;40313;50.308;30.374;2022-09-09T00:05:14;8.77;;;6.28;;
54406;SDS011;40313;50.308;30.374;2022-09-09T00:07:48;10.98;;;6.40;;
54406;SDS011;40313;50.308;30.374;2022-09-09T00:10:21;7.75;;;7.05;;
54406;SDS011;40313;50.308;30.374;2022-09-09T00:12:55;12.75;;;6.38;;
54406;SDS011;40313;50.308;30.374;2022-09-09T00:15:28;7.05;;;6.15;;
54406;SDS011;40313;50.308;30.374;2022-09-09T00:18:01;6.95;;;5.95;;
54406;SDS011;40313;50.308;30.374;2022-09-09T00:20:37;8.70;;;6.30;;
54406;SDS011;40313;50.308;30.374;2022-09-09T00:23:11;14.43;;;6.55;;
54406;SDS011;40313;50.308;30.374;2022-09-09T00:25:42;11.98;;;6.63;;
54406;SDS011;40313;50.308;30.374;2022-09-09T00:28:17;7.50;;;5.93;;
54406;SDS011;40313;50.308;30.374;2022-09-09T00:30:45;16.60;;;6.65;;
54406;SDS011;40313;50.308;30.374;2022-09-09T00:33:13;11.75;;;6.30;;
54406;SDS011;40313;50.308;30.374;2022-09-09T00:35:44;7.70;;;6.90;;
54406;SDS011;40313;50.308;30.374;2022-09-09T00:38:14;8.35;;;6.20;;
54406;SDS011;40313;50.308;30.374;2022-09-09T00:40:47;7.00;;;6.40;;
54406;SDS011;40313;50.308;30.374;2022-09-09T00:43:26;7.43;;;5.82;;
54406;SDS011;40313;50.308;30.374;2022-09-09T00:48:58;6.55;;;6.05;;
54406;SDS011;40313;50.308;30.374;2022-09-09T00:51:33;8.43;;;5.75;;
54406;SDS011;40313;50.308;30.374;2022-09-09T00:54:27;13.20;;;5.90;;
54406;SDS011;40313;50.308;30.374;2022-09-09T00:57:03;6.43;;;5.93;;
54406;SDS011;40313;50.308;30.374;2022-09-09T00:59:44;14.98;;;6.82;;
54406;SDS011;40313;50.308;30.374;2022-09-09T01:02:16;9.23;;;5.97;;
54406;SDS011;40313;50.308;30.374;2022-09-09T01:04:51;9.95;;;6.10;;
54406;SDS011;40313;50.308;30.374;2022-09-09T01:07:18;6.70;;;6.00;;
54406;SDS011;40313;50.308;30.374;2022-09-09T01:09:50;7.28;;;5.07;;
54406;SDS011;40313;50.308;30.374;2022-09-09T01:12:23;6.93;;;6.10;;
54406;SDS011;40313;50.308;30.374;2022-09-09T01:14:53;7.28;;;5.90;;
54406;SDS011;40313;50.308;30.374;2022-09-09T01:17:28;6.25;;;5.65;;
54406;SDS011;40313;50.308;30.374;2022-09-09T01:20:02;11.93;;;5.93;;
54406;SDS011;40313;50.308;30.374;2022-09-09T01:22:34;6.93;;;5.60;;
54406;SDS011;40313;50.308;30.374;2022-09-09T01:25:11;9.50;;;6.85;;
54406;SDS011;40313;50.308;30.374;2022-09-09T01:27:48;6.88;;;6.30;;
54406;SDS011;40313;50.308;30.374;2022-09-09T01:30:17;7.68;;;6.40;;
54406;SDS011;40313;50.308;30.374;2022-09-09T01:32:45;6.70;;;6.13;;
54406;SDS011;40313;50.308;30.374;2022-09-09T01:35:15;8.38;;;6.45;;
54406;SDS011;40313;50.308;30.374;2022-09-09T01:37:52;7.22;;;5.95;;
54406;SDS011;40313;50.308;30.374;2022-09-09T01:40:19;7.55;;;6.85;;
54406;SDS011;40313;50.308;30.374;2022-09-09T01:42:45;9.52;;;5.70;;
54406;SDS011;40313;50.308;30.374;2022-09-09T01:45:13;6.38;;;5.80;;
54406;SDS011;40313;50.308;30.374;2022-09-09T01:47:40;7.63;;;6.07;;
54406;SDS011;40313;50.308;30.374;2022-09-09T01:50:07;6.10;;;5.70;;
54406;SDS011;40313;50.308;30.374;2022-09-09T01:52:37;6.35;;;5.93;;
54406;SDS011;40313;50.308;30.374;2022-09-09T01:55:04;9.50;;;5.40;;
54406;SDS011;40313;50.308;30.374;2022-09-09T01:57:33;7.35;;;5.97;;
54406;SDS011;40313;50.308;30.374;2022-09-09T02:00:07;14.90;;;6.38;;
54406;SDS011;40313;50.308;30.374;2022-09-09T02:02:38;7.38;;;6.68;;
54406;SDS011;40313;50.308;30.374;2022-09-09T02:05:15;6.43;;;6.00;;
54406;SDS011;40313;50.308;30.374;2022-09-09T02:07:52;8.35;;;5.97;;
54406;SDS011;40313;50.308;30.374;2022-09-09T02:10:28;7.47;;;6.15;;
54406;SDS011;40313;50.308;30.374;2022-09-09T02:13:00;4.60;;;4.25;;
54406;SDS011;40313;50.308;30.374;2022-09-09T02:15:32;5.30;;;5.00;;
54406;SDS011;40313;50.308;30.374;2022-09-09T02:18:04;5.15;;;4.75;;
54406;SDS011;40313;50.308;30.374;2022-09-09T02:20:34;9.13;;;5.47;;
54406;SDS011;40313;50.308;30.374;2022-09-09T02:23:03;11.00;;;5.57;;
54406;SDS011;40313;50.308;30.374;2022-09-09T02:25:32;13.27;;;5.25;;
54406;SDS011;40313;50.308;30.374;2022-09-09T02:28:01;9.25;;;5.28;;
54406;SDS011;40313;50.308;30.374;2022-09-09T02:30:34;6.80;;;4.93;;
54406;SDS011;40313;50.308;30.374;2022-09-09T02:33:03;6.15;;;5.50;;
54406;SDS011;40313;50.308;30.374;2022-09-09T02:35:33;6.47;;;5.70;;
54406;SDS011;40313;50.308;30.374;2022-09-09T02:38:03;5.68;;;5.18;;
54406;SDS011;40313;50.308;30.374;2022-09-09T02:40:33;5.57;;;5.07;;
54406;SDS011;40313;50.308;30.374;2022-09-09T02:43:00;10.00;;;5.47;;
54406;SDS011;40313;50.308;30.374;2022-09-09T02:45:29;5.28;;;4.88;;
54406;SDS011;40313;50.308;30.374;2022-09-09T02:48:03;5.93;;;5.47;;
54406;SDS011;40313;50.308;30.374;2022-09-09T02:50:40;5.95;;;5.45;;
54406;SDS011;40313;50.308;30.374;2022-09-09T02:53:16;16.23;;;5.03;;
54406;SDS011;40313;50.308;30.374;2022-09-09T02:55:46;6.60;;;5.97;;
54406;SDS011;40313;50.308;30.374;2022-09-09T02:58:16;6.45;;;5.43;;
54406;SDS011;40313;50.308;30.374;2022-09-09T03:00:45;5.80;;;5.25;;
54406;SDS011;40313;50.308;30.374;2022-09-09T03:03:14;9.73;;;5.25;;
54406;SDS011;40313;50.308;30.374;2022-09-09T03:05:42;5.43;;;5.03;;
54406;SDS011;40313;50.308;30.374;2022-09-09T03:08:09;6.18;;;5.57;;
54406;SDS011;40313;50.308;30.374;2022-09-09T03:10:35;6.72;;;5.80;;
54406;SDS011;40313;50.308;30.374;2022-09-09T03:13:03;11.00;;;6.22;;
54406;SDS011;40313;50.308;30.374;2022-09-09T03:15:30;7.30;;;6.38;;
54406;SDS011;40313;50.308;30.374;2022-09-09T03:17:57;6.18;;;5.53;;
54406;SDS011;40313;50.308;30.374;2022-09-09T03:20:26;6.38;;;5.68;;
54406;SDS011;40313;50.308;30.374;2022-09-09T03:22:53;10.40;;;5.60;;
54406;SDS011;40313;50.308;30.374;2022-09-09T03:25:21;6.40;;;5.82;;
54406;SDS011;40313;50.308;30.374;2022-09-09T03:27:48;10.23;;;4.93;;
54406;SDS011;40313;50.308;30.374;2022-09-09T03:30:19;6.05;;;5.55;;
54406;SDS011;40313;50.308;30.374;2022-09-09T03:32:46;11.05;;;5.65;;
54406;SDS011;40313;50.308;30.374;2022-09-09T03:35:13;5.32;;;4.82;;
54406;SDS011;40313;50.308;30.374;2022-09-09T03:37:41;6.25;;;5.85;;
54406;SDS011;40313;50.308;30.374;2022-09-09T03:40:08;5.25;;;4.95;;
54406;SDS011;40313;50.308;30.374;2022-09-09T03:42:36;7.40;;;4.60;;
54406;SDS011;40313;50.308;30.374;2022-09-09T03:45:03;5.43;;;5.03;;
54406;SDS011;40313;50.308;30.374;2022-09-09T03:47:30;9.88;;;5.22;;
54406;SDS011;40313;50.308;30.374;2022-09-09T03:49:57;8.77;;;4.68;;
54406;SDS011;40313;50.308;30.374;2022-09-09T03:52:23;9.88;;;5.50;;
54406;SDS011;40313;50.308;30.374;2022-09-09T03:54:52;5.43;;;4.82;;
54406;SDS011;40313;50.308;30.374;2022-09-09T03:57:21;11.80;;;4.80;;
54406;SDS011;40313;50.308;30.374;2022-09-09T03:59:48;11.32;;;5.40;;
54406;SDS011;40313;50.308;30.374;2022-09-09T04:02:15;13.13;;;4.95;;
54406;SDS011;40313;50.308;30.374;2022-09-09T04:04:41;5.03;;;4.63;;
54406;SDS011;40313;50.308;30.374;2022-09-09T04:07:08;6.07;;;5.68;;
54406;SDS011;40313;50.308;30.374;2022-09-09T04:09:35;4.72;;;4.15;;
54406;SDS011;40313;50.308;30.374;2022-09-09T04:12:03;6.30;;;5.10;;
54406;SDS011;40313;50.308;30.374;2022-09-09T04:14:29;5.82;;;4.95;;
54406;SDS011;40313;50.308;30.374;2022-09-09T04:16:56;6.15;;;4.35;;
54406;SDS011;40313;50.308;30.374;2022-09-09T04:19:24;9.50;;;4.85;;
54406;SDS011;40313;50.308;30.374;2022-09-09T04:21:51;8.10;;;5.03;;
54406;SDS011;40313;50.308;30.374;2022-09-09T04:24:18;8.77;;;5.00;;
54406;SDS011;40313;50.308;30.374;2022-09-09T04:26:44;7.82;;;5.13;;
54406;SDS011;40313;50.308;30.374;2022-09-09T04:29:13;5.30;;;4.88;;
54406;SDS011;40313;50.308;30.374;2022-09-09T04:31:40;6.72;;;5.63;;
54406;SDS011;40313;50.308;30.374;2022-09-09T04:34:07;12.27;;;4.82;;
54406;SDS011;40313;50.308;30.374;2022-09-09T04:36:33;9.63;;;5.00;;
54406;SDS011;40313;50.308;30.374;2022-09-09T04:39:01;7.18;;;5.28;;
54406;SDS011;40313;50.308;30.374;2022-09-09T04:41:28;9.77;;;5.40;;
54406;SDS011;40313;50.308;30.374;2022-09-09T04:43:56;11.20;;;6.15;;
54406;SDS011;40313;50.308;30.374;2022-09-09T04:46:24;12.35;;;5.45;;
54406;SDS011;40313;50.308;30.374;2022-09-09T04:48:50;6.70;;;5.25;;
54406;SDS011;40313;50.308;30.374;2022-09-09T04:51:18;6.65;;;5.25;;
54406;SDS011;40313;50.308;30.374;2022-09-09T04:53:45;5.57;;;5.13;;
54406;SDS011;40313;50.308;30.374;2022-09-09T04:56:13;6.20;;;5.70;;
54406;SDS011;40313;50.308;30.374;2022-09-09T04:58:40;6.97;;;4.88;;
54406;SDS011;40313;50.308;30.374;2022-09-09T05:01:08;5.43;;;4.95;;
54406;SDS011;40313;50.308;30.374;2022-09-09T05:03:37;5.32;;;4.88;;
54406;SDS011;40313;50.308;30.374;2022-09-09T05:06:05;8.18;;;4.72;;
54406;SDS011;40313;50.308;30.374;2022-09-09T05:08:33;4.55;;;4.15;;
54406;SDS011;40313;50.308;30.374;2022-09-09T05:11:00;8.52;;;5.65;;
54406;SDS011;40313;50.308;30.374;2022-09-09T05:13:26;5.43;;;4.93;;
54406;SDS011;40313;50.308;30.374;2022-09-09T05:15:54;5.65;;;5.15;;
54406;SDS011;40313;50.308;30.374;2022-09-09T05:18:22;15.50;;;4.93;;
54406;SDS011;40313;50.308;30.374;2022-09-09T05:20:50;4.28;;;3.97;;
54406;SDS011;40313;50.308;30.374;2022-09-09T05:23:17;4.90;;;4.35;;
54406;SDS011;40313;50.308;30.374;2022-09-09T05:25:43;5.05;;;4.63;;
54406;SDS011;40313;50.308;30.374;2022-09-09T05:28:11;4.53;;;4.25;;
54406;SDS011;40313;50.308;30.374;2022-09-09T05:30:38;9.60;;;4.80;;
54406;SDS011;40313;50.308;30.374;2022-09-09T05:33:04;6.30;;;4.45;;
54406;SDS011;40313;50.308;30.374;2022-09-09T05:35:31;4.15;;;3.85;;
54406;SDS011;40313;50.308;30.374;2022-09-09T05:38:00;4.68;;;4.28;;
54406;SDS011;40313;50.308;30.374;2022-09-09T05:40:26;5.95;;;4.18;;
54406;SDS011;40313;50.308;30.374;2022-09-09T05:42:53;11.65;;;4.57;;
54406;SDS011;40313;50.308;30.374;2022-09-09T05:45:19;6.35;;;3.85;;
54406;SDS011;40313;50.308;30.374;2022-09-09T05:47:50;6.25;;;3.95;;
54406;SDS011;40313;50.308;30.374;2022-09-09T05:50:18;5.57;;;3.97;;
54406;SDS011;40313;50.308;30.374;2022-09-09T05:52:45;15.60;;;5.25;;
54406;SDS011;40313;50.308;30.374;2022-09-09T05:55:14;6.57;;;3.97;;
54406;SDS011;40313;50.308;30.374;2022-09-09T05:57:41;4.60;;;3.80;;
54406;SDS011;40313;50.308;30.374;2022-09-09T06:00:07;10.70;;;4.57;;
54406;SDS011;40313;50.308;30.374;2022-09-09T06:02:35;6.20;;;3.88;;
54406;SDS011;40313;50.308;30.374;2022-09-09T06:05:04;9.35;;;3.65;;
54406;SDS011;40313;50.308;30.374;2022-09-09T06:07:31;13.00;;;4.18;;
54406;SDS011;40313;50.308;30.374;2022-09-09T06:09:57;6.75;;;3.58;;
54406;SDS011;40313;50.308;30.374;2022-09-09T06:12:26;4.45;;;4.05;;
54406;SDS011;40313;50.308;30.374;2022-09-09T06:14:52;4.32;;;3.92;;
54406;SDS011;40313;50.308;30.374;2022-09-09T06:17:19;3.63;;;3.40;;
54406;SDS011;40313;50.308;30.374;2022-09-09T06:19:46;7.90;;;3.35;;
54406;SDS011;40313;50.308;30.374;2022-09-09T06:22:12;3.67;;;3.30;;
54406;SDS011;40313;50.308;30.374;2022-09-09T06:24:39;3.95;;;2.95;;
54406;SDS011;40313;50.308;30.374;2022-09-09T06:27:05;7.72;;;3.28;;
54406;SDS011;40313;50.308;30.374;2022-09-09T06:29:33;12.07;;;3.10;;
54406;SDS011;40313;50.308;30.374;2022-09-09T06:32:00;3.83;;;3.42;;
54406;SDS011;40313;50.308;30.374;2022-09-09T06:34:27;3.40;;;2.78;;
54406;SDS011;40313;50.308;30.374;2022-09-09T06:36:54;7.72;;;2.88;;
54406;SDS011;40313;50.308;30.374;2022-09-09T06:39:22;8.07;;;3.35;;
54406;SDS011;40313;50.308;30.374;2022-09-09T06:41:49;4.80;;;3.22;;
54406;SDS011;40313;50.308;30.374;2022-09-09T06:44:18;2.83;;;2.63;;
54406;SDS011;40313;50.308;30.374;2022-09-09T06:46:46;14.75;;;2.95;;
54406;SDS011;40313;50.308;30.374;2022-09-09T06:49:13;2.40;;;1.98;;
54406;SDS011;40313;50.308;30.374;2022-09-09T06:51:40;3.58;;;1.98;;
54406;SDS011;40313;50.308;30.374;2022-09-09T06:54:08;2.47;;;2.22;;
54406;SDS011;40313;50.308;30.374;2022-09-09T06:56:35;1.90;;;1.70;;
54406;SDS011;40313;50.308;30.374;2022-09-09T06:59:03;3.70;;;1.80;;
54406;SDS011;40313;50.308;30.374;2022-09-09T07:01:31;2.45;;;2.13;;
54406;SDS011;40313;50.308;30.374;2022-09-09T07:04:01;3.25;;;1.95;;
54406;SDS011;40313;50.308;30.374;2022-09-09T07:06:29;2.80;;;2.60;;
54406;SDS011;40313;50.308;30.374;2022-09-09T07:08:58;2.60;;;2.40;;
54406;SDS011;40313;50.308;30.374;2022-09-09T07:11:26;5.70;;;2.65;;
54406;SDS011;40313;50.308;30.374;2022-09-09T07:13:54;6.07;;;2.00;;
54406;SDS011;40313;50.308;30.374;2022-09-09T07:16:22;2.08;;;1.70;;
54406;SDS011;40313;50.308;30.374;2022-09-09T07:18:49;6.85;;;2.90;;
54406;SDS011;40313;50.308;30.374;2022-09-09T07:21:18;10.05;;;2.08;;
54406;SDS011;40313;50.308;30.374;2022-09-09T07:23:45;2.17;;;1.98;;
54406;SDS011;40313;50.308;30.374;2022-09-09T07:26:13;6.53;;;2.50;;
54406;SDS011;40313;50.308;30.374;2022-09-09T07:28:42;4.88;;;1.92;;
54406;SDS011;40313;50.308;30.374;2022-09-09T07:31:12;2.92;;;2.10;;
54406;SDS011;40313;50.308;30.374;2022-09-09T07:33:40;8.35;;;1.92;;
54406;SDS011;40313;50.308;30.374;2022-09-09T07:36:08;7.90;;;1.85;;
54406;SDS011;40313;50.308;30.374;2022-09-09T07:38:41;2.42;;;2.00;;
54406;SDS011;40313;50.308;30.374;2022-09-09T07:41:10;1.63;;;1.52;;
54406;SDS011;40313;50.308;30.374;2022-09-09T07:43:39;3.70;;;2.10;;
54406;SDS011;40313;50.308;30.374;2022-09-09T07:46:06;1.55;;;1.30;;
54406;SDS011;40313;50.308;30.374;2022-09-09T07:48:33;3.40;;;1.42;;
54406;SDS011;40313;50.308;30.374;2022-09-09T07:51:07;2.05;;;1.77;;
54406;SDS011;40313;50.308;30.374;2022-09-09T07:53:36;1.50;;;1.40;;
54406;SDS011;40313;50.308;30.374;2022-09-09T07:56:05;1.70;;;1.58;;
54406;SDS011;40313;50.308;30.374;2022-09-09T07:58:34;1.75;;;1.63;;
54406;SDS011;40313;50.308;30.374;2022-09-09T08:01:05;5.45;;;1.30;;
54406;SDS011;40313;50.308;30.374;2022-09-09T08:03:32;6.85;;;1.35;;
54406;SDS011;40313;50.308;30.374;2022-09-09T08:06:00;1.70;;;1.60;;
54406;SDS011;40313;50.308;30.374;2022-09-09T08:08:27;2.70;;;2.00;;
54406;SDS011;40313;50.308;30.374;2022-09-09T08:11:00;2.83;;;0.88;;
54406;SDS011;40313;50.308;30.374;2022-09-09T08:13:29;1.38;;;1.27;;
54406;SDS011;40313;50.308;30.374;2022-09-09T08:16:02;1.65;;;1.10;;
54406;SDS011;40313;50.308;30.374;2022-09-09T08:18:30;6.93;;;0.82;;
54406;SDS011;40313;50.308;30.374;2022-09-09T08:20:57;5.78;;;0.98;;
54406;SDS011;40313;50.308;30.374;2022-09-09T08:23:23;13.02;;;2.33;;
54406;SDS011;40313;50.308;30.374;2022-09-09T08:25:50;2.45;;;1.20;;
54406;SDS011;40313;50.308;30.374;2022-09-09T08:28:17;1.20;;;1.00;;
54406;SDS011;40313;50.308;30.374;2022-09-09T08:30:45;5.30;;;0.80;;
54406;SDS011;40313;50.308;30.374;2022-09-09T08:33:13;6.57;;;0.73;;
54406;SDS011;40313;50.308;30.374;2022-09-09T08:35:39;1.58;;;0.90;;
54406;SDS011;40313;50.308;30.374;2022-09-09T08:38:15;1.38;;;1.00;;
54406;SDS011;40313;50.308;30.374;2022-09-09T08:40:42;1.17;;;0.70;;
54406;SDS011;40313;50.308;30.374;2022-09-09T08:43:14;11.60;;;1.25;;
54406;SDS011;40313;50.308;30.374;2022-09-09T08:45:47;8.82;;;1.40;;
54406;SDS011;40313;50.308;30.374;2022-09-09T08:48:26;6.68;;;1.00;;
54406;SDS011;40313;50.308;30.374;2022-09-09T08:51:08;2.22;;;0.88;;
54406;SDS011;40313;50.308;30.374;2022-09-09T08:53:36;1.45;;;1.35;;
54406;SDS011;40313;50.308;30.374;2022-09-09T08:56:09;5.70;;;2.13;;
54406;SDS011;40313;50.308;30.374;2022-09-09T08:58:41;1.00;;;0.90;;
54406;SDS011;40313;50.308;30.374;2022-09-09T09:01:17;1.50;;;1.02;;
54406;SDS011;40313;50.308;30.374;2022-09-09T09:04:07;1.50;;;0.90;;
54406;SDS011;40313;50.308;30.374;2022-09-09T09:06:47;2.90;;;0.85;;
54406;SDS011;40313;50.308;30.374;2022-09-09T09:09:21;7.15;;;0.82;;
54406;SDS011;40313;50.308;30.374;2022-09-09T09:11:56;1.02;;;0.55;;
54406;SDS011;40313;50.308;30.374;2022-09-09T09:14:26;0.88;;;0.70;;
54406;SDS011;40313;50.308;30.374;2022-09-09T09:16:57;1.70;;;0.70;;
54406;SDS011;40313;50.308;30.374;2022-09-09T09:19:26;0.55;;;0.55;;
54406;SDS011;40313;50.308;30.374;2022-09-09T09:21:54;2.67;;;0.75;;
54406;SDS011;40313;50.308;30.374;2022-09-09T09:24:30;11.60;;;0.90;;
54406;SDS011;40313;50.308;30.374;2022-09-09T09:27:10;14.82;;;1.52;;
54406;SDS011;40313;50.308;30.374;2022-09-09T09:29:39;2.75;;;2.08;;
54406;SDS011;40313;50.308;30.374;2022-09-09T09:32:10;2.28;;;1.30;;
54406;SDS011;40313;50.308;30.374;2022-09-09T09:34:40;1.10;;;0.55;;
54406;SDS011;40313;50.308;30.374;2022-09-09T09:37:07;2.92;;;0.60;;
54406;SDS011;40313;50.308;30.374;2022-09-09T09:39:42;0.73;;;0.50;;
54406;SDS011;40313;50.308;30.374;2022-09-09T09:42:09;7.15;;;0.80;;
54406;SDS011;40313;50.308;30.374;2022-09-09T09:44:39;6.32;;;0.50;;
54406;SDS011;40313;50.308;30.374;2022-09-09T09:47:07;4.97;;;0.80;;
54406;SDS011;40313;50.308;30.374;2022-09-09T09:49:38;4.90;;;0.75;;
54406;SDS011;40313;50.308;30.374;2022-09-09T09:52:05;5.88;;;0.77;;
54406;SDS011;40313;50.308;30.374;2022-09-09T09:54:32;1.45;;;0.90;;
54406;SDS011;40313;50.308;30.374;2022-09-09T09:57:09;1.23;;;0.95;;
54406;SDS011;40313;50.308;30.374;2022-09-09T09:59:38;1.83;;;0.70;;
54406;SDS011;40313;50.308;30.374;2022-09-09T10:02:06;2.45;;;0.60;;
54406;SDS011;40313;50.308;30.374;2022-09-09T10:04:45;0.98;;;0.95;;
54406;SDS011;40313;50.308;30.374;2022-09-09T10:07:13;1.17;;;1.08;;
54406;SDS011;40313;50.308;30.374;2022-09-09T10:09:44;11.48;;;0.60;;
54406;SDS011;40313;50.308;30.374;2022-09-09T10:12:15;2.35;;;0.60;;
54406;SDS011;40313;50.308;30.374;2022-09-09T10:14:52;2.10;;;0.60;;
54406;SDS011;40313;50.308;30.374;2022-09-09T10:17:29;2.35;;;0.80;;
54406;SDS011;40313;50.308;30.374;2022-09-09T10:20:11;2.42;;;0.80;;
54406;SDS011;40313;50.308;30.374;2022-09-09T10:22:47;4.70;;;2.30;;
54406;SDS011;40313;50.308;30.374;2022-09-09T10:25:32;3.00;;;0.63;;
54406;SDS011;40313;50.308;30.374;2022-09-09T10:28:25;3.65;;;0.75;;
54406;SDS011;40313;50.308;30.374;2022-09-09T10:31:02;0.60;;;0.55;;
54406;SDS011;40313;50.308;30.374;2022-09-09T10:33:43;7.30;;;0.73;;
54406;SDS011;40313;50.308;30.374;2022-09-09T10:36:17;4.32;;;0.75;;
54406;SDS011;40313;50.308;30.374;2022-09-09T10:38:47;0.68;;;0.68;;
54406;SDS011;40313;50.308;30.374;2022-09-09T10:41:19;3.00;;;0.50;;
54406;SDS011;40313;50.308;30.374;2022-09-09T10:44:05;5.65;;;0.95;;
54406;SDS011;40313;50.308;30.374;2022-09-09T10:46:43;3.38;;;0.60;;
54406;SDS011;40313;50.308;30.374;2022-09-09T10:49:41;4.78;;;0.45;;
54406;SDS011;40313;50.308;30.374;2022-09-09T10:52:20;4.85;;;0.70;;
54406;SDS011;40313;50.308;30.374;2022-09-09T10:54:56;1.75;;;0.70;;
54406;SDS011;40313;50.308;30.374;2022-09-09T10:57:27;4.82;;;0.60;;
54406;SDS011;40313;50.308;30.374;2022-09-09T10:59:58;5.50;;;0.77;;
54406;SDS011;40313;50.308;30.374;2022-09-09T11:02:29;1.13;;;0.80;;
54406;SDS011;40313;50.308;30.374;2022-09-09T11:04:59;0.75;;;0.73;;
54406;SDS011;40313;50.308;30.374;2022-09-09T11:07:29;0.60;;;0.50;;
54406;SDS011;40313;50.308;30.374;2022-09-09T11:10:04;5.57;;;0.68;;
54406;SDS011;40313;50.308;30.374;2022-09-09T11:12:33;5.10;;;0.80;;
54406;SDS011;40313;50.308;30.374;2022-09-09T11:15:05;6.70;;;0.70;;
54406;SDS011;40313;50.308;30.374;2022-09-09T11:17:39;1.23;;;0.93;;
54406;SDS011;40313;50.308;30.374;2022-09-09T11:20:13;8.43;;;0.90;;
54406;SDS011;40313;50.308;30.374;2022-09-09T11:22:42;8.68;;;0.95;;
54406;SDS011;40313;50.308;30.374;2022-09-09T11:25:15;0.88;;;0.73;;
54406;SDS011;40313;50.308;30.374;2022-09-09T11:27:50;8.65;;;0.77;;
54406;SDS011;40313;50.308;30.374;2022-09-09T11:30:26;2.00;;;0.60;;
54406;SDS011;40313;50.308;30.374;2022-09-09T11:33:02;3.42;;;0.57;;
54406;SDS011;40313;50.308;30.374;2022-09-09T11:35:44;1.67;;;0.80;;
54406;SDS011;40313;50.308;30.374;2022-09-09T11:38:19;0.73;;;0.47;;
54406;SDS011;40313;50.308;30.374;2022-09-09T11:40:54;3.40;;;0.68;;
54406;SDS011;40313;50.308;30.374;2022-09-09T11:43:25;1.35;;;0.77;;
54406;SDS011;40313;50.308;30.374;2022-09-09T11:45:57;1.23;;;0.60;;
54406;SDS011;40313;50.308;30.374;2022-09-09T11:48:26;2.40;;;0.68;;
54406;SDS011;40313;50.308;30.374;2022-09-09T11:50:59;2.13;;;0.90;;
54406;SDS011;40313;50.308;30.374;2022-09-09T11:53:30;3.35;;;0.98;;
54406;SDS011;40313;50.308;30.374;2022-09-09T11:56:08;0.68;;;0.60;;
54406;SDS011;40313;50.308;30.374;2022-09-09T11:58:39;1.30;;;0.88;;
54406;SDS011;40313;50.308;30.374;2022-09-09T12:01:15;0.93;;;0.82;;
54406;SDS011;40313;50.308;30.374;2022-09-09T12:03:54;7.05;;;0.80;;
54406;SDS011;40313;50.308;30.374;2022-09-09T12:06:33;1.25;;;0.90;;
54406;SDS011;40313;50.308;30.374;2022-09-09T12:09:12;7.80;;;1.10;;
54406;SDS011;40313;50.308;30.374;2022-09-09T12:11:44;6.57;;;0.85;;
54406;SDS011;40313;50.308;30.374;2022-09-09T12:14:18;7.32;;;0.70;;
54406;SDS011;40313;50.308;30.374;2022-09-09T12:16:47;0.82;;;0.60;;
54406;SDS011;40313;50.308;30.374;2022-09-09T12:19:15;3.20;;;1.10;;
54406;SDS011;40313;50.308;30.374;2022-09-09T12:21:48;0.90;;;0.60;;
54406;SDS011;40313;50.308;30.374;2022-09-09T12:24:20;5.43;;;1.13;;
54406;SDS011;40313;50.308;30.374;2022-09-09T12:26:57;1.13;;;0.70;;
54406;SDS011;40313;50.308;30.374;2022-09-09T12:29:28;10.95;;;0.85;;
54406;SDS011;40313;50.308;30.374;2022-09-09T12:32:04;2.28;;;0.70;;
54406;SDS011;40313;50.308;30.374;2022-09-09T12:34:41;3.10;;;0.85;;
54406;SDS011;40313;50.308;30.374;2022-09-09T12:37:16;5.95;;;0.95;;
54406;SDS011;40313;50.308;30.374;2022-09-09T12:39:49;2.53;;;0.88;;
54406;SDS011;40313;50.308;30.374;2022-09-09T12:42:21;0.85;;;0.60;;
54406;SDS011;40313;50.308;30.374;2022-09-09T12:44:52;0.82;;;0.75;;
54406;SDS011;40313;50.308;30.374;2022-09-09T12:47:20;1.00;;;0.80;;
54406;SDS011;40313;50.308;30.374;2022-09-09T12:49:52;7.68;;;0.82;;
54406;SDS011;40313;50.308;30.374;2022-09-09T12:52:23;6.88;;;0.60;;
54406;SDS011;40313;50.308;30.374;2022-09-09T12:54:55;5.40;;;0.60;;
54406;SDS011;40313;50.308;30.374;2022-09-09T12:57:23;1.25;;;0.50;;
54406;SDS011;40313;50.308;30.374;2022-09-09T12:59:51;3.47;;;0.75;;
54406;SDS011;40313;50.308;30.374;2022-09-09T13:02:20;4.75;;;0.55;;
54406;SDS011;40313;50.308;30.374;2022-09-09T13:04:48;1.77;;;0.60;;
54406;SDS011;40313;50.308;30.374;2022-09-09T13:07:15;9.88;;;0.98;;
54406;SDS011;40313;50.308;30.374;2022-09-09T13:09:44;6.93;;;1.00;;
54406;SDS011;40313;50.308;30.374;2022-09-09T13:12:13;8.68;;;1.13;;
54406;SDS011;40313;50.308;30.374;2022-09-09T13:14:43;1.50;;;0.70;;
54406;SDS011;40313;50.308;30.374;2022-09-09T13:17:17;5.75;;;0.80;;
54406;SDS011;40313;50.308;30.374;2022-09-09T13:19:46;2.85;;;0.80;;
54406;SDS011;40313;50.308;30.374;2022-09-09T13:22:21;1.80;;;0.80;;
54406;SDS011;40313;50.308;30.374;2022-09-09T13:25:01;4.00;;;1.08;;
54406;SDS011;40313;50.308;30.374;2022-09-09T13:27:31;2.22;;;0.88;;
54406;SDS011;40313;50.308;30.374;2022-09-09T13:29:59;3.17;;;1.38;;
54406;SDS011;40313;50.308;30.374;2022-09-09T13:32:27;10.02;;;1.30;;
54406;SDS011;40313;50.308;30.374;2022-09-09T13:34:55;3.63;;;3.33;;
54406;SDS011;40313;50.308;30.374;2022-09-09T13:37:23;2.30;;;2.20;;
54406;SDS011;40313;50.308;30.374;2022-09-09T13:39:55;3.55;;;3.25;;
54406;SDS011;40313;50.308;30.374;2022-09-09T13:42:25;7.63;;;1.33;;
54406;SDS011;40313;50.308;30.374;2022-09-09T13:44:53;1.30;;;1.00;;
54406;SDS011;40313;50.308;30.374;2022-09-09T13:47:26;6.65;;;2.00;;
54406;SDS011;40313;50.308;30.374;2022-09-09T13:49:56;1.98;;;0.75;;
54406;SDS011;40313;50.308;30.374;2022-09-09T13:52:22;1.20;;;0.95;;
54406;SDS011;40313;50.308;30.374;2022-09-09T13:54:51;3.35;;;1.95;;
54406;SDS011;40313;50.308;30.374;2022-09-09T13:57:19;3.15;;;0.82;;
54406;SDS011;40313;50.308;30.374;2022-09-09T13:59:48;2.45;;;1.02;;
54406;SDS011;40313;50.308;30.374;2022-09-09T14:02:16;3.65;;;1.40;;
54406;SDS011;40313;50.308;30.374;2022-09-09T14:04:42;1.90;;;1.15;;
54406;SDS011;40313;50.308;30.374;2022-09-09T14:07:10;6.30;;;1.42;;
54406;SDS011;40313;50.308;30.374;2022-09-09T14:09:38;3.30;;;1.27;;
54406;SDS011;40313;50.308;30.374;2022-09-09T14:12:05;6.35;;;2.00;;
54406;SDS011;40313;50.308;30.374;2022-09-09T14:14:32;4.35;;;1.60;;
54406;SDS011;40313;50.308;30.374;2022-09-09T14:17:01;2.85;;;1.65;;
54406;SDS011;40313;50.308;30.374;2022-09-09T14:19:28;14.70;;;1.92;;
54406;SDS011;40313;50.308;30.374;2022-09-09T14:21:55;4.75;;;1.52;;
54406;SDS011;40313;50.308;30.374;2022-09-09T14:24:22;1.92;;;1.52;;
54406;SDS011;40313;50.308;30.374;2022-09-09T14:26:48;4.45;;;1.25;;
54406;SDS011;40313;50.308;30.374;2022-09-09T14:29:15;4.35;;;1.60;;
54406;SDS011;40313;50.308;30.374;2022-09-09T14:31:41;3.10;;;1.67;;
54406;SDS011;40313;50.308;30.374;2022-09-09T14:34:09;1.48;;;1.30;;
54406;SDS011;40313;50.308;30.374;2022-09-09T14:36:36;4.53;;;1.52;;
54406;SDS011;40313;50.308;30.374;2022-09-09T14:39:03;1.90;;;1.27;;
54406;SDS011;40313;50.308;30.374;2022-09-09T14:41:29;3.72;;;1.77;;
54406;SDS011;40313;50.308;30.374;2022-09-09T14:43:56;1.55;;;1.40;;
54406;SDS011;40313;50.308;30.374;2022-09-09T14:46:23;7.43;;;2.13;;
54406;SDS011;40313;50.308;30.374;2022-09-09T14:48:50;9.95;;;1.50;;
54406;SDS011;40313;50.308;30.374;2022-09-09T14:51:19;11.68;;;1.60;;
54406;SDS011;40313;50.308;30.374;2022-09-09T14:53:48;2.38;;;1.50;;